createdAt,value
2018-12-05T00:02:28.199Z,7.90
2018-12-05T00:05:26.054Z,7.90
2018-12-05T00:08:23.908Z,7.90
2018-12-05T00:11:21.628Z,7.90
2018-12-05T00:14:20.542Z,7.90
2018-12-05T00:17:18.281Z,7.80
2018-12-05T00:20:16.050Z,7.80
2018-12-05T00:23:13.921Z,7.80
2018-12-05T00:26:11.857Z,7.80
2018-12-05T00:29:09.713Z,7.70
2018-12-05T00:32:07.780Z,7.70
2018-12-05T00:35:05.819Z,7.60
2018-12-05T00:38:03.777Z,7.50
2018-12-05T00:41:01.760Z,7.50
2018-12-05T00:43:59.494Z,7.30
2018-12-05T00:54:38.143Z,7.10
2018-12-05T00:57:36.106Z,6.60
2018-12-05T01:00:34.078Z,6.60
2018-12-05T01:03:32.039Z,6.60
2018-12-05T01:06:29.998Z,6.70
2018-12-05T01:09:30.159Z,6.80
2018-12-05T01:12:29.095Z,6.80
2018-12-05T01:15:26.885Z,6.80
2018-12-05T01:18:24.894Z,6.80
2018-12-05T01:21:22.629Z,6.80
2018-12-05T01:24:20.606Z,6.80
2018-12-05T01:27:18.556Z,6.70
2018-12-05T01:30:16.552Z,6.70
2018-12-05T01:33:14.282Z,6.60
2018-12-05T01:36:12.199Z,6.60
2018-12-05T01:39:10.089Z,6.60
2018-12-05T01:42:08.057Z,6.50
2018-12-05T01:45:06.816Z,6.50
2018-12-05T01:48:04.776Z,6.50
2018-12-05T01:51:02.514Z,6.50
2018-12-05T01:54:00.678Z,6.50
2018-12-05T01:56:58.545Z,6.50
2018-12-05T01:59:56.314Z,6.50
2018-12-05T02:02:54.060Z,6.50
2018-12-05T02:05:52.058Z,6.40
2018-12-05T02:08:49.969Z,6.40
2018-12-05T02:11:47.760Z,6.40
2018-12-05T02:14:45.466Z,6.40
2018-12-05T02:17:43.545Z,6.50
2018-12-05T02:20:41.297Z,6.50
2018-12-05T02:23:39.061Z,6.50
2018-12-05T02:26:36.889Z,6.50
2018-12-05T02:33:15.219Z,6.40
2018-12-05T02:36:12.927Z,6.30
2018-12-05T02:39:11.616Z,6.30
2018-12-05T02:42:09.450Z,6.30
2018-12-05T02:45:07.313Z,6.30
2018-12-05T02:48:05.285Z,6.30
2018-12-05T02:51:03.187Z,6.30
2018-12-05T02:54:01.077Z,6.30
2018-12-05T02:56:58.843Z,6.30
2018-12-05T02:59:56.700Z,6.30
2018-12-05T03:02:55.796Z,6.30
2018-12-05T03:05:53.751Z,6.30
2018-12-05T03:08:52.524Z,6.20
2018-12-05T03:11:51.204Z,6.20
2018-12-05T03:14:49.147Z,6.20
2018-12-05T03:17:47.939Z,6.10
2018-12-05T03:20:45.896Z,6.10
2018-12-05T03:23:43.931Z,6.10
2018-12-05T03:26:41.849Z,6.10
2018-12-05T03:29:39.667Z,6.20
2018-12-05T03:32:38.451Z,6.20
2018-12-05T03:35:42.417Z,6.30
2018-12-05T03:38:40.390Z,6.40
2018-12-05T03:41:38.540Z,6.40
2018-12-05T03:44:36.196Z,6.50
2018-12-05T03:47:33.796Z,6.50
2018-12-05T03:50:31.598Z,6.60
2018-12-05T03:53:29.461Z,6.60
2018-12-05T03:56:27.259Z,6.70
2018-12-05T03:59:24.927Z,6.70
2018-12-05T04:02:22.737Z,6.70
2018-12-05T04:05:20.460Z,6.70
2018-12-05T04:08:18.630Z,6.80
2018-12-05T04:11:16.544Z,6.80
2018-12-05T04:14:14.613Z,6.70
2018-12-05T04:17:12.498Z,6.70
2018-12-05T04:20:10.449Z,6.60
2018-12-05T04:23:08.231Z,6.50
2018-12-05T04:26:05.936Z,6.40
2018-12-05T04:29:03.831Z,6.40
2018-12-05T04:32:01.818Z,6.40
2018-12-05T04:34:59.747Z,6.40
2018-12-05T04:37:57.753Z,6.40
2018-12-05T04:40:55.882Z,6.40
2018-12-05T04:43:53.838Z,6.50
2018-12-05T04:46:51.668Z,6.50
2018-12-05T04:49:49.661Z,6.50
2018-12-05T04:52:47.710Z,6.50
2018-12-05T04:55:45.566Z,6.50
2018-12-05T04:58:43.297Z,6.40
2018-12-05T05:01:41.329Z,6.40
2018-12-05T05:04:39.345Z,6.40
2018-12-05T05:07:37.222Z,6.40
2018-12-05T05:10:35.130Z,6.40
2018-12-05T05:13:33.117Z,6.40
2018-12-05T05:16:31.784Z,6.50
2018-12-05T05:19:29.747Z,6.50
2018-12-05T05:22:27.705Z,6.50
2018-12-05T05:25:25.646Z,6.50
2018-12-05T05:28:23.596Z,6.50
2018-12-05T05:31:23.819Z,6.50
2018-12-05T05:34:22.379Z,6.40
2018-12-05T05:37:20.357Z,6.40
2018-12-05T05:40:18.057Z,6.40
2018-12-05T05:43:15.970Z,6.40
2018-12-05T05:46:13.659Z,6.40
2018-12-05T05:49:11.787Z,6.40
2018-12-05T05:52:09.738Z,6.40
2018-12-05T05:55:08.406Z,6.40
2018-12-05T05:58:06.113Z,6.40
2018-12-05T06:01:03.912Z,6.40
2018-12-05T06:04:01.706Z,6.50
2018-12-05T06:06:59.526Z,6.50
2018-12-05T06:09:57.485Z,6.50
2018-12-05T06:12:55.527Z,6.50
2018-12-05T06:15:53.499Z,6.40
2018-12-05T06:18:51.667Z,6.40
2018-12-05T06:21:49.650Z,6.40
2018-12-05T06:24:47.590Z,6.40
2018-12-05T06:27:45.547Z,6.30
2018-12-05T06:30:43.386Z,6.30
2018-12-05T06:33:41.160Z,6.30
2018-12-05T06:36:39.076Z,6.20
2018-12-05T06:39:36.954Z,6.20
2018-12-05T06:42:34.781Z,6.20
2018-12-05T06:45:32.789Z,6.20
2018-12-05T06:48:30.848Z,6.20
2018-12-05T06:51:28.821Z,6.20
2018-12-05T06:54:26.546Z,6.10
2018-12-05T06:57:24.454Z,6.10
2018-12-05T07:00:23.067Z,6.10
2018-12-05T07:03:21.536Z,6.10
2018-12-05T07:06:20.105Z,6.10
2018-12-05T07:09:18.282Z,6.10
2018-12-05T07:12:16.250Z,6.10
2018-12-05T07:15:14.307Z,6.20
2018-12-05T07:18:12.369Z,6.20
2018-12-05T07:21:10.192Z,6.20
2018-12-05T07:24:09.040Z,6.30
2018-12-05T07:27:07.772Z,6.40
2018-12-05T07:30:05.518Z,6.40
2018-12-05T07:33:03.469Z,6.50
2018-12-05T07:36:01.265Z,6.60
2018-12-05T07:38:59.298Z,6.70
2018-12-05T07:41:57.356Z,6.70
2018-12-05T07:44:56.136Z,6.80
2018-12-05T07:47:54.076Z,6.80
2018-12-05T07:50:51.772Z,6.80
2018-12-05T07:53:49.592Z,6.80
2018-12-05T07:56:47.459Z,6.70
2018-12-05T07:59:45.292Z,6.60
2018-12-05T08:02:43.104Z,6.60
2018-12-05T08:05:40.946Z,6.50
2018-12-05T08:08:38.964Z,6.50
2018-12-05T08:11:36.774Z,6.60
2018-12-05T08:14:34.887Z,6.60
2018-12-05T08:17:32.716Z,6.70
2018-12-05T08:20:31.515Z,6.70
2018-12-05T08:23:29.380Z,6.70
2018-12-05T08:26:27.212Z,6.70
2018-12-05T08:29:25.105Z,6.80
2018-12-05T08:32:23.058Z,6.80
2018-12-05T08:35:21.073Z,6.80
2018-12-05T08:38:19.018Z,6.90
2018-12-05T08:41:17.101Z,7.00
2018-12-05T08:44:15.165Z,7.10
2018-12-05T08:47:13.030Z,7.10
2018-12-05T08:50:11.069Z,7.10
2018-12-05T08:53:09.066Z,7.00
2018-12-05T08:56:06.728Z,7.00
2018-12-05T08:59:04.758Z,7.00
2018-12-05T09:02:02.615Z,7.00
2018-12-05T09:05:00.481Z,7.00
2018-12-05T09:07:58.674Z,7.00
2018-12-05T09:10:56.511Z,7.20
2018-12-05T09:13:54.358Z,7.20
2018-12-05T09:16:52.283Z,7.30
2018-12-05T09:19:50.969Z,7.40
2018-12-05T09:22:48.561Z,7.50
2018-12-05T09:25:46.502Z,7.60
2018-12-05T09:28:44.381Z,7.60
2018-12-05T09:31:42.290Z,7.60
2018-12-05T09:34:40.075Z,7.60
2018-12-05T09:37:38.253Z,7.80
2018-12-05T09:40:36.095Z,7.80
2018-12-05T09:43:34.246Z,7.90
2018-12-05T09:46:32.095Z,7.80
2018-12-05T09:49:31.487Z,7.90
2018-12-05T09:52:30.041Z,7.90
2018-12-05T09:55:27.955Z,7.90
2018-12-05T09:58:25.722Z,7.90
2018-12-05T10:01:23.731Z,7.90
2018-12-05T10:04:21.679Z,7.90
2018-12-05T10:07:19.466Z,8.00
2018-12-05T10:10:18.209Z,8.00
2018-12-05T10:13:16.022Z,8.00
2018-12-05T10:16:13.881Z,8.10
2018-12-05T10:19:11.786Z,8.20
2018-12-05T10:22:09.552Z,8.20
2018-12-05T10:25:08.313Z,8.30
2018-12-05T10:28:06.177Z,8.40
2018-12-05T10:31:03.932Z,8.50
2018-12-05T10:34:01.782Z,8.60
2018-12-05T10:36:59.742Z,8.60
2018-12-05T10:39:57.677Z,8.60
2018-12-05T10:42:55.544Z,8.70
2018-12-05T10:45:53.601Z,8.80
2018-12-05T10:48:51.434Z,8.80
2018-12-05T10:51:49.432Z,8.90
2018-12-05T10:54:47.415Z,8.90
2018-12-05T10:57:45.408Z,9.00
2018-12-05T11:00:50.270Z,9.10
2018-12-05T11:03:49.287Z,9.20
2018-12-05T11:10:42.908Z,9.50
2018-12-05T11:17:38.969Z,9.60
2018-12-05T11:20:42.753Z,9.70
2018-12-05T11:23:47.511Z,9.60
2018-12-05T11:26:47.041Z,9.50
2018-12-05T11:29:45.982Z,9.50
2018-12-05T11:32:44.820Z,9.50
2018-12-05T11:35:43.590Z,9.60
2018-12-05T11:38:42.468Z,9.60
2018-12-05T11:41:40.448Z,9.70
2018-12-05T11:47:38.765Z,9.80
2018-12-05T11:50:06.696Z,9.80
2018-12-05T11:52:34.250Z,9.90
2018-12-05T11:55:01.805Z,9.90
2018-12-05T11:57:29.372Z,9.90
2018-12-05T11:59:57.015Z,9.90
2018-12-05T12:02:24.582Z,9.90
2018-12-05T12:04:53.812Z,9.90
2018-12-05T12:07:21.373Z,9.90
2018-12-05T12:09:49.010Z,9.90
2018-12-05T12:12:22.440Z,9.90
2018-12-05T12:14:50.076Z,9.90
2018-12-05T12:17:17.640Z,9.90
2018-12-05T12:19:45.205Z,9.90
2018-12-05T12:22:12.773Z,10.00
2018-12-05T12:24:40.328Z,9.90
2018-12-05T12:27:07.877Z,9.90
2018-12-05T12:29:35.474Z,10.00
2018-12-05T12:32:03.036Z,10.00
2018-12-05T12:34:30.591Z,10.00
2018-12-05T12:36:58.151Z,10.00
2018-12-05T12:39:25.734Z,10.10
2018-12-05T12:41:53.291Z,10.10
2018-12-05T12:44:20.850Z,10.10
2018-12-05T12:46:48.419Z,10.10
2018-12-05T12:49:15.984Z,10.10
2018-12-05T12:51:43.577Z,10.00
2018-12-05T12:54:11.150Z,10.00
2018-12-05T12:56:38.724Z,10.00
2018-12-05T12:59:06.280Z,9.90
2018-12-05T13:01:33.848Z,9.80
2018-12-05T13:04:01.407Z,9.80
2018-12-05T13:06:29.051Z,9.70
2018-12-05T13:08:56.858Z,9.70
2018-12-05T13:11:24.410Z,9.70
2018-12-05T13:13:51.966Z,9.60
2018-12-05T13:16:19.524Z,9.60
2018-12-05T13:18:47.078Z,9.50
2018-12-05T13:21:14.647Z,9.50
2018-12-05T13:23:42.204Z,9.40
2018-12-05T13:26:09.759Z,9.40
2018-12-05T13:28:37.372Z,9.50
2018-12-05T13:31:04.935Z,9.50
2018-12-05T13:33:32.499Z,9.60
2018-12-05T13:36:00.088Z,9.60
2018-12-05T13:38:27.639Z,9.60
2018-12-05T13:40:55.271Z,9.70
2018-12-05T13:43:22.824Z,9.70
2018-12-05T13:45:50.388Z,9.70
2018-12-05T13:48:17.946Z,9.70
2018-12-05T13:50:45.551Z,9.70
2018-12-05T13:53:13.219Z,9.60
2018-12-05T13:55:40.780Z,9.60
2018-12-05T13:58:08.358Z,9.60
2018-12-05T14:00:35.918Z,9.60
2018-12-05T14:03:03.482Z,9.60
2018-12-05T14:05:31.050Z,9.60
2018-12-05T14:07:58.610Z,9.60
2018-12-05T14:10:26.258Z,9.60
2018-12-05T14:12:55.872Z,9.60
2018-12-05T14:15:23.492Z,9.60
2018-12-05T14:17:51.065Z,9.70
2018-12-05T14:20:18.640Z,9.70
2018-12-05T14:22:46.209Z,9.60
2018-12-05T14:25:14.888Z,9.60
2018-12-05T14:27:42.560Z,9.50
2018-12-05T14:30:10.124Z,9.50
2018-12-05T14:32:37.767Z,9.40
2018-12-05T14:35:05.411Z,9.30
2018-12-05T14:37:33.022Z,9.30
2018-12-05T14:40:00.580Z,9.30
2018-12-05T14:42:28.163Z,9.20
2018-12-05T14:44:55.708Z,9.20
2018-12-05T14:47:23.271Z,9.10
2018-12-05T14:49:50.826Z,9.10
2018-12-05T14:52:18.381Z,9.10
2018-12-05T14:54:45.940Z,9.00
2018-12-05T14:57:13.502Z,9.00
2018-12-05T14:59:41.071Z,9.10
2018-12-05T15:02:08.619Z,9.10
2018-12-05T15:04:36.176Z,9.10
2018-12-05T15:07:03.885Z,9.10
2018-12-05T15:09:31.441Z,9.10
2018-12-05T15:11:59.078Z,9.00
2018-12-05T15:14:26.639Z,9.00
2018-12-05T15:16:54.191Z,9.00
2018-12-05T15:19:21.761Z,9.00
2018-12-05T15:21:49.314Z,9.00
2018-12-05T15:24:16.882Z,8.90
2018-12-05T15:26:44.456Z,8.90
2018-12-05T15:29:12.039Z,8.90
2018-12-05T15:31:39.694Z,8.90
2018-12-05T15:34:07.250Z,8.90
2018-12-05T15:36:34.801Z,8.90
2018-12-05T15:39:02.721Z,8.80
2018-12-05T15:41:30.293Z,8.80
2018-12-05T15:43:57.849Z,8.80
2018-12-05T15:46:25.419Z,8.80
2018-12-05T15:48:53.057Z,8.80
2018-12-05T15:51:20.613Z,8.70
2018-12-05T15:53:48.167Z,8.80
2018-12-05T15:56:15.746Z,8.70
2018-12-05T15:58:43.307Z,8.70
2018-12-05T16:01:10.979Z,8.80
2018-12-05T16:03:43.126Z,8.80
2018-12-05T16:06:08.113Z,8.80
2018-12-05T16:08:35.676Z,8.70
2018-12-05T16:11:03.244Z,8.70
2018-12-05T16:13:30.825Z,8.70
2018-12-05T16:15:58.384Z,8.70
2018-12-05T16:18:25.981Z,8.70
2018-12-05T16:20:53.538Z,8.70
2018-12-05T16:23:21.124Z,8.70
2018-12-05T16:25:48.687Z,8.70
2018-12-05T16:28:16.265Z,8.70
2018-12-05T16:30:43.837Z,8.70
2018-12-05T16:33:11.415Z,8.60
2018-12-05T16:35:38.989Z,8.60
2018-12-05T16:38:06.630Z,8.60
2018-12-05T16:40:34.223Z,8.60
2018-12-05T16:43:01.784Z,8.60
2018-12-05T16:45:29.358Z,8.60
2018-12-05T16:47:56.929Z,8.50
2018-12-05T16:50:24.494Z,8.50
2018-12-05T16:52:52.068Z,8.50
2018-12-05T16:55:19.629Z,8.50
2018-12-05T16:57:47.220Z,8.40
2018-12-05T17:00:14.775Z,8.40
2018-12-05T17:02:42.366Z,8.40
2018-12-05T17:05:10.005Z,8.40
2018-12-05T17:07:37.585Z,8.40
2018-12-05T17:10:05.598Z,8.40
2018-12-05T17:12:33.185Z,8.40
2018-12-05T17:15:00.745Z,8.40
2018-12-05T17:17:28.324Z,8.40
2018-12-05T17:19:55.892Z,8.40
2018-12-05T17:22:23.474Z,8.40
2018-12-05T17:24:51.027Z,8.30
2018-12-05T17:27:18.613Z,8.30
2018-12-05T17:29:46.164Z,8.20
2018-12-05T17:32:13.766Z,8.20
2018-12-05T17:34:41.324Z,8.20
2018-12-05T17:37:09.994Z,8.10
2018-12-05T17:39:37.970Z,8.10
2018-12-05T17:42:05.627Z,8.10
2018-12-05T17:44:33.187Z,8.10
2018-12-05T17:47:00.768Z,8.10
2018-12-05T17:49:28.401Z,8.20
2018-12-05T17:51:55.958Z,8.20
2018-12-05T17:54:23.531Z,8.20
2018-12-05T17:56:51.124Z,8.20
2018-12-05T17:59:18.705Z,8.20
2018-12-05T18:01:46.261Z,8.20
2018-12-05T18:04:13.841Z,8.20
2018-12-05T18:06:41.422Z,8.30
2018-12-05T18:09:09.144Z,8.30
2018-12-05T18:11:36.729Z,8.30
2018-12-05T18:14:04.382Z,8.30
2018-12-05T18:16:31.962Z,8.30
2018-12-05T18:18:59.545Z,8.20
2018-12-05T18:21:27.152Z,8.20
2018-12-05T18:23:54.736Z,8.10
2018-12-05T18:26:22.309Z,8.10
2018-12-05T18:28:49.897Z,8.00
2018-12-05T18:31:17.495Z,8.00
2018-12-05T18:33:45.074Z,8.00
2018-12-05T18:36:12.650Z,8.00
2018-12-05T18:38:40.236Z,8.00
2018-12-05T18:41:07.826Z,7.90
2018-12-05T18:43:35.531Z,7.90
2018-12-05T18:46:03.112Z,7.90
2018-12-05T18:48:30.692Z,7.90
2018-12-05T18:50:58.273Z,8.00
2018-12-05T18:53:25.861Z,8.00
2018-12-05T18:55:53.429Z,8.10
2018-12-05T18:58:20.997Z,8.00
2018-12-05T19:00:48.576Z,8.10
2018-12-05T19:03:16.330Z,8.10
2018-12-05T19:05:43.941Z,8.10
2018-12-05T19:08:11.558Z,8.20
2018-12-05T19:10:39.143Z,8.20
2018-12-05T19:13:06.778Z,8.20
2018-12-05T19:15:34.354Z,8.10
2018-12-05T19:18:01.922Z,8.10
2018-12-05T19:20:29.501Z,8.10
2018-12-05T19:22:57.084Z,8.10
2018-12-05T19:25:24.709Z,8.10
2018-12-05T19:27:52.278Z,8.00
2018-12-05T19:30:19.870Z,8.00
2018-12-05T19:32:47.452Z,7.90
2018-12-05T19:35:15.036Z,7.80
2018-12-05T19:37:42.624Z,7.80
2018-12-05T19:40:10.208Z,7.80
2018-12-05T19:42:37.829Z,7.70
2018-12-05T19:45:06.174Z,7.70
2018-12-05T19:47:33.766Z,7.70
2018-12-05T19:50:01.355Z,7.70
2018-12-05T19:52:28.948Z,7.70
2018-12-05T19:54:56.539Z,7.70
2018-12-05T19:57:24.131Z,7.70
2018-12-05T19:59:51.721Z,7.70
2018-12-05T20:02:19.305Z,7.60
2018-12-05T20:04:46.893Z,7.60
2018-12-05T20:07:16.068Z,7.60
2018-12-05T20:09:43.803Z,7.50
2018-12-05T20:12:11.381Z,7.50
2018-12-05T20:14:38.985Z,7.50
2018-12-05T20:17:06.720Z,7.50
2018-12-05T20:19:34.322Z,7.50
2018-12-05T20:22:01.901Z,7.50
2018-12-05T20:24:29.485Z,7.60
2018-12-05T20:29:31.175Z,7.60
2018-12-05T20:31:58.771Z,7.60
2018-12-05T20:34:26.341Z,7.60
2018-12-05T20:36:53.926Z,7.70
2018-12-05T20:39:26.013Z,7.70
2018-12-05T20:41:55.088Z,7.70
2018-12-05T20:44:22.670Z,7.80
2018-12-05T20:46:50.257Z,7.80
2018-12-05T20:49:17.851Z,7.80
2018-12-05T20:51:45.481Z,7.80
2018-12-05T20:54:13.066Z,7.90
2018-12-05T20:56:40.654Z,7.90
2018-12-05T20:59:08.266Z,7.90
2018-12-05T21:01:35.874Z,7.90
2018-12-05T21:04:03.542Z,8.00
2018-12-05T21:06:31.125Z,8.00
2018-12-05T21:08:58.697Z,8.00
2018-12-05T21:11:26.314Z,8.00
2018-12-05T21:13:53.875Z,8.00
2018-12-05T21:16:21.462Z,8.00
2018-12-05T21:18:49.030Z,8.00
2018-12-05T21:21:16.633Z,8.00
2018-12-05T21:23:44.190Z,8.00
2018-12-05T21:26:11.781Z,8.00
2018-12-05T21:28:39.341Z,8.00
2018-12-05T21:31:06.896Z,8.00
2018-12-05T21:33:34.893Z,8.00
2018-12-05T21:36:02.483Z,8.00
2018-12-05T21:38:30.042Z,8.00
2018-12-05T21:40:57.595Z,8.00
2018-12-05T21:43:25.162Z,8.00
2018-12-05T21:45:53.598Z,8.00
2018-12-05T21:48:21.180Z,8.00
2018-12-05T21:50:48.734Z,7.90
2018-12-05T21:53:16.292Z,8.00
2018-12-05T21:55:43.854Z,7.90
2018-12-05T21:58:11.412Z,7.90
2018-12-05T22:00:38.969Z,7.90
2018-12-05T22:03:06.547Z,7.90
2018-12-05T22:05:34.212Z,8.00
2018-12-05T22:08:01.778Z,8.00
2018-12-05T22:10:29.336Z,8.00
2018-12-05T22:12:56.900Z,8.00
2018-12-05T22:15:24.510Z,8.00
2018-12-05T22:17:52.069Z,8.00
2018-12-05T22:20:19.621Z,8.10
2018-12-05T22:22:47.173Z,8.10
2018-12-05T22:25:14.722Z,8.10
2018-12-05T22:27:42.298Z,8.10
2018-12-05T22:30:10.032Z,8.10
2018-12-05T22:32:37.595Z,8.10
2018-12-05T22:35:05.302Z,8.10
2018-12-05T22:37:32.860Z,8.10
2018-12-05T22:40:00.419Z,8.10
2018-12-05T22:42:27.969Z,8.00
2018-12-05T22:44:55.540Z,8.10
2018-12-05T22:47:23.100Z,8.10
2018-12-05T22:49:50.785Z,8.00
2018-12-05T22:52:18.349Z,8.10
2018-12-05T22:54:45.911Z,8.10
2018-12-05T22:57:13.741Z,8.10
2018-12-05T22:59:41.442Z,8.10
2018-12-05T23:02:09.113Z,8.10
2018-12-05T23:04:36.667Z,8.10
2018-12-05T23:07:06.231Z,8.20
2018-12-05T23:09:34.050Z,8.20
2018-12-05T23:12:02.347Z,8.20
2018-12-05T23:14:30.027Z,8.20
2018-12-05T23:16:57.687Z,8.20
2018-12-05T23:19:25.252Z,8.20
2018-12-05T23:21:52.812Z,8.20
2018-12-05T23:24:20.359Z,8.30
2018-12-05T23:26:47.921Z,8.30
2018-12-05T23:29:15.489Z,8.40
2018-12-05T23:31:43.046Z,8.40
2018-12-05T23:34:10.597Z,8.40
2018-12-05T23:36:38.157Z,8.50
2018-12-05T23:39:06.477Z,8.50
2018-12-05T23:41:34.113Z,8.60
2018-12-05T23:44:01.681Z,8.60
2018-12-05T23:46:29.241Z,8.60
2018-12-05T23:48:56.800Z,8.70
2018-12-05T23:51:24.367Z,8.70
2018-12-05T23:53:51.925Z,8.80
2018-12-05T23:56:19.553Z,8.80
2018-12-05T23:58:47.109Z,8.80
